Aplicació Alertes

Dades de l'estació automàtica Alguaire

?
?
Resum diari 23:00 TU
Dades diàries de l'estació meteorològica
Temperatura mitjana 6.5 °C
Temperatura màxima 12.0 °C 14:24 TU
Temperatura mínima 0.4 °C 6:22 TU
Humitat relativa mitjana 79%
Precipitació acumulada 0.0 mm
Ratxa màxima del vent (10 m) 18.0 km/h - 89º 22:59 TU
Pressió atmosfèrica mitjana 1023.9 hPa
Irradiació solar global 10.3 MJ/m2

El tram horari està expressat en Temps Universal (TU). Cal sumar una hora en horari d'hivern i dues en horari d'estiu per passar a l'hora oficial.

Alguaire

Metadades estació meteorol´gica
Municipi Alguaire
Comarca Segrià
Altitud 370 m
Data alta 02.06.2006
Estat actual Operativa
Dades de període
Període
TU
TM
°C
TX
°C
TN
°C
HRM
%
PPT
mm
VVM (10 m)
km/h
DVM (10 m)
graus
VVX (10 m)
km/h
PM
hPa
RS
W/m2
00:00 - 00:30 5.8 7.3 4.4 77 0.0 5.8 336 10.1 1023.4 0
00:30 - 01:00 4.9 5.4 4.5 82 0.0 2.9 302 4.3 1023.5 0
01:00 - 01:30 5.1 5.5 4.8 82 0.0 4.3 353 6.1 1023.4 0
01:30 - 02:00 4.7 4.7 4.6 85 0.0 3.6 271 4.7 1023.6 0
02:00 - 02:30 4.8 4.9 4.6 86 0.0 2.5 236 4.7 1023.6 0
02:30 - 03:00 4.8 5.0 4.7 86 0.0 2.9 267 3.6 1023.6 0
03:00 - 03:30 4.4 5.1 3.4 87 0.0 4.7 220 8.6 1023.4 0
03:30 - 04:00 3.9 4.0 3.6 90 0.0 7.6 204 9.4 1023.5 0
04:00 - 04:30 3.2 3.8 2.6 92 0.0 6.5 224 9.0 1023.9 0
04:30 - 05:00 2.5 2.6 2.3 95 0.0 5.8 206 8.3 1023.9 0
05:00 - 05:30 2.6 2.7 2.4 96 0.0 7.2 199 9.0 1023.9 0
05:30 - 06:00 2.4 2.5 2.2 96 0.0 5.0 172 7.2 1023.9 0
06:00 - 06:30 1.5 2.2 0.4 97 0.0 4.0 149 6.1 1024.4 0
06:30 - 07:00 1.5 1.6 1.2 98 0.0 5.0 138 7.2 1024.7 1
07:00 - 07:30 1.6 1.8 1.2 98 0.0 9.0 169 11.2 1024.9 21
07:30 - 08:00 1.7 2.4 1.5 98 0.0 9.7 198 11.9 1025.2 70
08:00 - 08:30 3.3 4.2 2.5 95 0.0 6.8 194 13.7 1024.9 161
08:30 - 09:00 4.5 5.2 4.2 88 0.0 3.2 159 6.8 1025.0 248
09:00 - 09:30 5.9 6.4 5.2 84 0.0 4.7 233 7.9 1025.0 320
09:30 - 10:00 6.6 7.1 6.4 81 0.0 4.7 224 9.7 1025.0 381
10:00 - 10:30 7.5 7.9 7.1 77 0.0 6.1 218 11.5 1024.9 432
10:30 - 11:00 8.4 9.2 7.5 72 0.0 5.8 232 11.2 1024.7 471
11:00 - 11:30 9.2 9.7 8.9 68 0.0 6.8 239 13.7 1024.3 501
11:30 - 12:00 9.9 10.5 9.6 65 0.0 6.5 247 11.9 1023.9 511
12:00 - 12:30 10.4 10.7 10.0 62 0.0 7.2 248 12.2 1023.6 501
12:30 - 13:00 10.8 11.3 10.4 61 0.0 9.0 259 15.8 1023.0 477
13:00 - 13:30 11.1 11.6 10.6 60 0.0 10.1 250 15.5 1022.7 435
13:30 - 14:00 11.6 11.9 11.0 58 0.0 9.4 261 14.0 1022.5 385
14:00 - 14:30 11.7 12.0 11.4 59 0.0 8.3 261 13.0 1022.4 315
14:30 - 15:00 11.7 12.0 11.5 56 0.0 8.3 255 11.9 1022.3 253
15:00 - 15:30 11.5 11.7 11.4 59 0.0 7.2 267 10.8 1022.4 173
15:30 - 16:00 11.1 11.3 10.7 62 0.0 6.5 290 9.4 1022.5 96
16:00 - 16:30 9.8 10.7 8.9 66 0.0 5.8 332 8.3 1022.6 27
16:30 - 17:00 9.1 9.3 8.9 69 0.0 5.8 11 7.2 1022.8 0
17:00 - 17:30 9.1 9.4 7.6 69 0.0 6.8 37 10.8 1023.0 0
17:30 - 18:00 8.2 8.7 7.4 71 0.0 11.2 72 13.3 1023.3 0
18:00 - 18:30 7.2 7.7 6.8 75 0.0 12.2 75 13.7 1023.7 0
18:30 - 19:00 7.8 7.9 7.6 74 0.0 10.4 79 10.8 1023.6 0
19:00 - 19:30 7.3 7.8 6.9 75 0.0 12.2 86 13.7 1023.8 0
19:30 - 20:00 6.7 7.5 6.0 76 0.0 14.4 84 16.6 1024.1 0
20:00 - 20:30 6.0 6.3 5.8 79 0.0 15.5 85 16.6 1024.5 0
20:30 - 21:00 5.9 6.1 5.5 81 0.0 14.0 99 15.5 1024.7 0
21:00 - 21:30 5.3 5.5 5.0 82 0.0 15.8 95 17.6 1025.0 0
21:30 - 22:00 5.1 5.3 4.9 84 0.0 15.8 94 16.9 1024.9 0
22:00 - 22:30 5.2 5.4 4.9 84 0.0 15.1 90 16.6 1025.0 0
22:30 - 23:00 4.9 5.3 4.5 84 0.0 16.9 91 18.0 1025.1 0
23:00 - 23:30 5.1 5.6 4.6 85 0.0 15.1 92 18.0 1025.2 0

Les dades en taronja només han passat un control de qualitat automàtic. Resta pendent la seva validació definitiva.